Latest Weather Observations for Broome

IDW60801

Issued at 8:35 pm WST Wednesday 1 October 2014 (issued every 30 minutes, with the page automatically refreshed every 10 minutes)

About weather observations | Map of weather stations | Latest weather observations for WA | Other Formats
Station Details ID: 003003 Name: BROOME AIRPORT Lat: -17.95 Lon: 122.24 Height: 7.42 m
Data from the previous 72 hours. | See also: Recent months at Broome
Date/Time
WST
Temp
°C
App
Temp
°C
Dew
Point
Rel
Hum
%
Delta-T
°C
Wind Press
QNH
hPa
Press
MSL
hPa
Rain
since 9 am
mm
Dir
 
Spd
km/h
Gust
km/h
Spd
kts
Gust
kts
01/08:30pm 25.1 28.1 22.7 86 1.6 NNW 11 17 6 9 1012.6 - 0.0
01/08:00pm 25.3 27.9 22.6 85 1.8 NW 13 17 7 9 1012.2 - 0.0
01/07:30pm 25.4 28.0 22.6 84 1.9 NW 13 20 7 11 1012.0 - 0.0
01/07:00pm 25.6 27.4 22.6 83 2.0 NW 17 24 9 13 1011.6 - 0.0
01/06:30pm 25.8 27.0 22.5 82 2.2 NW 20 28 11 15 1011.0 - 0.0
01/06:00pm 26.0 26.9 22.0 78 2.7 NW 20 28 11 15 1010.7 1010.6 0.0
01/05:30pm 26.4 26.7 21.6 75 3.2 NW 22 35 12 19 1010.4 - 0.0
01/05:00pm 26.9 27.3 21.8 73 3.4 NW 22 39 12 21 1010.0 - 0.0
01/04:30pm 27.9 27.1 21.6 68 4.2 NW 28 39 15 21 1010.0 - 0.0
01/04:00pm 28.2 28.0 22.0 69 4.2 NW 26 41 14 22 1009.8 - 0.0
01/03:30pm 28.2 27.0 21.5 67 4.5 NW 30 43 16 23 1009.6 - 0.0
01/03:00pm 29.0 27.4 21.5 64 5.0 NW 32 44 17 24 1009.8 1009.7 0.0
01/02:30pm 29.0 27.1 21.0 62 5.3 NW 32 46 17 25 1010.0 - 0.0
01/02:00pm 28.9 26.4 20.9 62 5.3 NW 35 54 19 29 1010.2 - 0.0
01/01:30pm 28.7 27.3 21.9 66 4.6 NW 32 50 17 27 1010.3 - 0.0
01/01:27pm 29.3 28.1 22.2 65 4.8 NW 32 50 17 27 1010.3 - 0.0
01/01:00pm 29.0 27.4 21.5 64 5.0 NW 32 48 17 26 1010.5 - 0.0
01/12:30pm 29.4 27.6 22.3 65 4.8 NNW 35 48 19 26 1010.7 - 0.0
01/12:00pm 30.0 28.0 20.8 57 6.1 NNW 32 44 17 24 1011.1 1011.0 0.0
01/11:30am 30.0 27.1 18.0 48 7.7 NNW 30 43 16 23 1011.5 - 0.0
01/11:00am 30.7 28.7 19.2 50 7.5 NW 28 37 15 20 1011.8 - 0.0
01/10:30am 30.8 28.7 19.0 49 7.7 NW 28 39 15 21 1011.9 - 0.0
01/10:00am 30.0 28.2 17.8 48 7.8 NNW 24 33 13 18 1012.2 - 0.0
01/09:30am 30.5 29.5 18.0 47 8.0 NNW 20 30 11 16 1012.3 - 0.0
01/09:00am 29.2 28.3 18.3 51 7.0 NNW 20 30 11 16 1012.3 1012.2 0.0
01/08:30am 28.5 28.1 19.4 57 5.9 NNW 20 28 11 15 1012.2 - -
01/08:00am 27.9 28.3 21.0 66 4.6 NW 20 30 11 16 1012.0 - -
01/07:30am 27.8 27.2 18.4 56 6.0 NNW 19 28 10 15 1011.7 - -
01/07:00am 26.4 29.1 21.3 73 3.4 NNE 9 17 5 9 1011.3 - 0.0
01/06:30am 26.0 26.8 19.8 68 4.0 NW 15 22 8 12 1010.9 - 0.0
01/06:00am 24.8 26.4 20.0 74 3.1 NW 11 15 6 8 1010.8 1010.7 0.0
01/05:30am 24.1 26.4 20.7 81 2.2 NNW 9 13 5 7 1010.6 - 0.0
01/05:00am 24.8 26.0 20.7 78 2.7 NW 15 20 8 11 1010.1 - 0.0
01/04:30am 25.0 26.3 20.9 78 2.7 NW 15 20 8 11 1009.8 - 0.0
01/04:00am 24.6 26.1 21.3 82 2.2 WNW 15 19 8 10 1009.6 - 0.0
01/03:30am 24.5 26.7 21.9 85 1.7 W 13 17 7 9 1009.6 - 0.0
01/03:00am 24.5 28.0 22.9 91 1.1 WNW 9 13 5 7 1010.0 1009.9 0.0
01/02:30am 24.5 28.2 23.3 93 0.8 NW 9 17 5 9 1010.0 - 0.0
01/02:00am 24.4 28.7 23.7 96 0.5 NNW 7 13 4 7 1010.3 - 0.0
01/01:30am 24.5 28.3 23.5 94 0.7 WNW 9 13 5 7 1010.3 - 0.0
01/01:00am 23.8 27.3 22.8 94 0.7 NNW 9 11 5 6 1010.7 - 0.0
01/12:30am 24.0 26.9 22.5 91 1.0 NNW 11 15 6 8 1010.8 - 0.0
01/12:00am 23.3 26.4 21.5 90 1.2 NW 7 9 4 5 1011.0 1010.9 0.0
 
Date/Time
WST
Temp
°C
App
Temp
°C
Dew
Point
Rel
Hum
%
Delta-T
°C
Wind Press
QNH
hPa
Press
MSL
hPa
Rain
since 9 am
mm
Dir
 
Spd
km/h
Gust
km/h
Spd
kts
Gust
kts
30/11:30pm 23.7 25.7 20.8 84 1.9 NNW 11 15 6 8 1011.3 - 0.0
30/11:00pm 24.3 25.1 19.8 76 2.9 NNW 15 19 8 10 1011.5 - 0.0
30/10:30pm 24.1 24.5 17.3 65 4.2 NNW 11 15 6 8 1011.6 - 0.0
30/10:00pm 24.5 25.2 18.0 67 4.1 NNW 11 17 6 9 1011.9 - 0.0
30/09:30pm 24.8 27.0 20.3 76 2.9 N 9 13 5 7 1011.9 - 0.0
30/09:00pm 25.4 26.3 17.6 62 4.9 NNW 9 13 5 7 1011.7 1011.6 0.0
30/08:30pm 26.7 26.8 16.5 53 6.3 WNW 11 17 6 9 1011.2 - 0.0
30/08:00pm 27.4 27.6 15.8 49 7.1 WNW 9 15 5 8 1011.0 - 0.0
30/07:30pm 27.1 26.9 16.6 52 6.5 NNW 13 19 7 10 1010.6 - 0.0
30/07:00pm 27.0 27.7 18.9 61 5.2 NNW 13 19 7 10 1010.2 - 0.0
30/06:30pm 26.8 28.0 20.6 69 4.1 WNW 15 19 8 10 1009.2 - 0.0
30/06:00pm 28.0 27.9 18.8 57 5.9 WSW 17 26 9 14 1008.4 1008.3 0.0
30/05:30pm 29.0 28.2 18.0 51 7.0 W 19 30 10 16 1008.0 - 0.0
30/05:00pm 30.0 28.1 17.6 47 7.9 WSW 24 33 13 18 1007.7 - 0.0
30/04:30pm 30.7 28.6 17.1 44 8.6 WSW 24 32 13 17 1007.4 - 0.0
30/04:00pm 30.9 28.6 17.6 45 8.5 WSW 26 33 14 18 1007.4 - 0.0
30/03:30pm 31.6 29.3 17.5 43 9.0 W 26 35 14 19 1007.5 - 0.0
30/03:00pm 32.2 29.5 16.7 39 9.8 WSW 26 37 14 20 1007.5 1007.4 0.0
30/02:30pm 32.0 29.8 16.9 40 9.6 WSW 24 33 13 18 1007.7 - 0.0
30/02:00pm 32.3 29.9 16.5 38 10.0 WSW 24 32 13 17 1008.0 - 0.0
30/01:30pm 31.8 30.5 18.2 44 8.8 WSW 22 30 12 16 1008.2 - 0.0
30/01:00pm 32.4 31.2 17.6 41 9.5 WSW 20 30 11 16 1008.6 - 0.0
30/12:30pm 31.5 30.3 17.6 43 8.9 WSW 20 28 11 15 1009.3 - 0.0
30/12:00pm 31.8 30.4 16.6 40 9.6 W 19 26 10 14 1009.9 1009.8 0.0
30/11:30am 30.6 29.9 17.4 45 8.4 W 17 24 9 13 1010.5 - 0.0
30/11:00am 31.0 30.8 17.7 45 8.5 W 15 20 8 11 1011.0 - 0.0
30/10:30am 32.0 31.5 16.8 40 9.6 W 15 19 8 10 1011.5 - 0.0
30/10:00am 31.8 31.1 15.3 37 10.2 W 13 19 7 10 1011.7 - 0.0
30/09:30am 31.9 29.7 10.8 27 12.2 SW 13 17 7 9 1012.1 - 0.0
30/09:00am 30.2 28.5 12.3 33 10.5 SSW 13 20 7 11 1012.5 1012.4 0.0
30/08:30am 29.1 27.4 13.5 38 9.3 S 15 22 8 12 1012.7 - 0.0
30/08:00am 28.7 27.1 14.0 40 8.8 SSW 15 22 8 12 1012.4 - 0.0
30/07:30am 27.7 26.2 15.2 46 7.6 SW 17 22 9 12 1012.2 - 0.0
30/07:00am 26.8 26.5 16.4 53 6.4 SSW 13 17 7 9 1011.9 - 0.0
30/06:30am 25.4 25.5 16.5 58 5.5 SSW 11 17 6 9 1011.8 - 0.0
30/06:00am 23.3 25.1 18.7 75 2.9 SW 7 9 4 5 1011.4 1011.3 0.0
30/05:30am 22.4 24.5 18.9 80 2.2 SW 6 7 3 4 1011.3 - 0.0
30/05:00am 23.8 25.6 18.8 73 3.2 SSW 7 9 4 5 1011.2 - 0.0
30/04:30am 24.2 25.1 18.3 69 3.7 SSW 11 15 6 8 1010.7 - 0.0
30/04:00am 24.3 24.7 18.1 68 3.9 SW 13 17 7 9 1010.4 - 0.0
30/03:30am 24.8 24.4 17.2 62 4.7 SW 15 20 8 11 1010.5 - 0.0
30/03:00am 24.7 24.6 17.8 65 4.3 SW 15 20 8 11 1010.3 1010.2 0.0
30/02:30am 24.2 27.3 19.4 74 3.1 SW 2 11 1 6 1010.4 - 0.0
30/02:00am 24.6 26.1 19.0 71 3.6 WSW 9 13 5 7 1010.2 - 0.0
30/01:30am 24.5 26.5 19.9 75 3.0 WSW 9 15 5 8 1010.4 - 0.0
30/01:00am 23.5 26.8 20.7 84 1.8 NW 4 9 2 5 1010.6 - 0.0
30/12:30am 24.4 26.8 20.9 81 2.3 W 9 13 5 7 1010.7 - 0.0
30/12:00am 24.6 27.0 20.8 79 2.5 WSW 9 13 5 7 1010.9 1010.8 0.0
 
Date/Time
WST
Temp
°C
App
Temp
°C
Dew
Point
Rel
Hum
%
Delta-T
°C
Wind Press
QNH
hPa
Press
MSL
hPa
Rain
since 9 am
mm
Dir
 
Spd
km/h
Gust
km/h
Spd
kts
Gust
kts
29/11:30pm 24.9 27.1 21.1 79 2.5 WSW 11 15 6 8 1011.2 - 0.0
29/11:00pm 24.4 27.7 21.5 84 1.9 WSW 6 11 3 6 1011.3 - 0.0
29/10:30pm 24.2 26.8 21.2 83 2.0 WNW 9 11 5 6 1011.5 - 0.0
29/10:00pm 25.3 27.5 21.2 78 2.7 WSW 11 20 6 11 1011.6 - 0.0
29/09:30pm 24.9 27.9 21.3 80 2.4 NNW 7 11 4 6 1011.7 - 0.0
29/09:00pm 25.8 28.0 21.1 75 3.1 WSW 11 15 6 8 1011.4 1011.3 0.0
29/08:30pm 25.7 28.5 20.8 74 3.2 W 7 11 4 6 1011.3 - 0.0
29/08:00pm 26.4 27.5 20.5 70 3.9 SW 15 20 8 11 1010.9 - 0.0
29/07:30pm 26.7 25.8 19.9 66 4.4 SW 24 32 13 17 1010.3 - 0.0
29/07:00pm 26.9 25.8 19.5 64 4.8 SW 24 32 13 17 1009.9 - 0.0
29/06:30pm 27.1 26.0 19.5 63 4.9 WSW 24 33 13 18 1009.5 - 0.0
29/06:00pm 27.7 26.1 18.3 56 6.0 WSW 24 35 13 19 1009.1 1009.0 0.0
29/05:30pm 28.8 26.6 17.0 49 7.4 WSW 24 33 13 18 1008.8 - 0.0
29/05:00pm 29.6 27.8 16.9 46 8.0 WSW 22 32 12 17 1008.6 - 0.0
29/04:30pm 30.8 27.9 15.0 38 9.7 WSW 24 33 13 18 1008.3 - 0.0
29/04:00pm 31.5 28.3 14.3 35 10.5 WSW 24 35 13 19 1008.4 - 0.0
29/03:30pm 34.0 28.9 9.3 22 14.1 WSW 26 35 14 19 1008.3 - 0.0
29/03:00pm 32.7 28.8 12.1 28 12.2 WSW 24 33 13 18 1008.4 1008.3 0.0
29/02:30pm 32.5 30.1 16.3 37 10.2 W 24 33 13 18 1008.5 - 0.0
29/02:00pm 31.9 29.6 16.7 40 9.6 W 24 32 13 17 1008.7 - 0.0
29/01:30pm 31.7 29.7 15.4 37 10.1 W 20 26 11 14 1009.0 - 0.0
29/01:00pm 31.7 30.0 16.2 39 9.7 W 20 26 11 14 1009.4 - 0.0
29/12:30pm 31.6 30.3 16.7 40 9.4 W 19 24 10 13 1009.9 - 0.0
29/12:00pm 32.3 30.6 15.8 37 10.3 W 19 22 10 12 1010.5 1010.4 0.0
29/11:30am 32.1 31.5 17.6 42 9.3 W 17 22 9 12 1011.1 - 0.0
29/11:00am 31.5 30.6 17.8 44 8.8 W 19 22 10 12 1011.7 - 0.0
29/10:30am 32.5 31.0 9.1 23 13.2 SW 7 13 4 7 1012.2 - 0.0
29/10:00am 30.9 29.4 10.4 28 11.7 SSW 9 13 5 7 1012.6 - 0.0
29/09:30am 30.0 27.2 10.0 29 11.3 SSW 15 20 8 11 1012.7 - 0.0
29/09:05am - - - - - - - - - - - - -
29/09:00am 29.9 28.1 12.1 33 10.4 SSW 13 19 7 10 1012.7 1012.7 0.0
29/08:30am 29.2 27.7 14.1 39 9.1 SSW 15 20 8 11 1012.6 - 0.0
29/08:00am 28.0 25.9 15.2 45 7.8 SW 20 28 11 15 1012.3 - 0.0
29/07:30am 27.6 26.1 16.3 50 7.0 SW 19 26 10 14 1012.1 - 0.0
29/07:00am 26.3 26.7 19.1 64 4.6 SW 15 20 8 11 1011.9 - 0.0
29/06:30am 24.3 27.0 21.4 84 1.9 SW 9 11 5 6 1011.7 - 0.0
29/06:00am 21.8 24.5 20.7 93 0.7 NNW 7 11 4 6 1011.6 1011.5 0.0
29/05:30am 22.6 25.0 20.9 90 1.1 ESE 9 13 5 7 1011.6 - 0.0
29/05:00am 23.1 25.3 21.1 88 1.3 W 11 15 6 8 1010.8 - 0.0
29/04:30am 22.7 24.8 21.0 90 1.1 SW 11 13 6 7 1010.7 - 0.0
29/04:00am 22.8 25.8 21.3 91 1.0 W 7 11 4 6 1010.6 - 0.0
29/03:30am 22.4 25.0 21.2 93 0.8 WSW 9 11 5 6 1010.4 - 0.0
29/03:00am 22.2 26.4 21.0 93 0.8 CALM 0 0 0 0 1010.4 1010.3 0.0
29/02:30am 22.1 25.1 20.9 93 0.8 N 6 9 3 5 1010.5 - 0.0
29/02:00am 23.2 25.6 20.9 87 1.5 WNW 9 11 5 6 1010.6 - 0.0
29/01:30am 23.2 25.4 20.3 84 1.9 WNW 9 11 5 6 1010.8 - 0.0
29/01:00am 23.3 25.9 20.4 84 1.9 NNW 7 11 4 6 1010.9 - 0.0
29/12:30am 23.2 25.5 21.4 90 1.2 WNW 11 13 6 7 1011.0 - 0.0
29/12:00am 22.0 24.5 20.3 90 1.1 NNW 7 11 4 6 1011.3 1011.2 0.0
 
Date/Time
WST
Temp
°C
App
Temp
°C
Dew
Point
Rel
Hum
%
Delta-T
°C
Wind Press
QNH
hPa
Press
MSL
hPa
Rain
since 9 am
mm
Dir
 
Spd
km/h
Gust
km/h
Spd
kts
Gust
kts
28/11:30pm 23.7 25.9 21.1 85 1.7 NW 11 13 6 7 1011.7 - 0.0
28/11:00pm 23.7 26.0 20.6 83 2.0 WNW 9 15 5 8 1011.9 - 0.0
28/10:30pm 23.1 26.4 21.4 90 1.1 NW 6 9 3 5 1012.1 - 0.0
28/10:00pm 22.5 25.5 21.3 93 0.8 N 7 11 4 6 1012.4 - 0.0
28/09:30pm 23.5 26.4 21.8 90 1.1 N 9 11 5 6 1012.3 - 0.0
28/09:00pm 24.1 27.1 22.0 88 1.4 N 9 13 5 7 1012.2 1012.1 0.0

Other Formats:

Comma delimited format used in spreadsheet applications
http://www.bom.gov.au/fwo/IDW60801/IDW60801.94203.axf

JavaScript Object Notation format (JSON) in row-major order
http://www.bom.gov.au/fwo/IDW60801/IDW60801.94203.json